sensor_id;sensor_type;location;lat;lon;timestamp;P1;durP1;ratioP1;P2;durP2;ratioP2
39872;SDS011;63160;48.854;9.292;2022-10-17T00:00:36;10.65;;;4.20;;
39872;SDS011;63160;48.854;9.292;2022-10-17T00:03:03;9.15;;;4.65;;
39872;SDS011;63160;48.854;9.292;2022-10-17T00:05:30;9.40;;;4.10;;
39872;SDS011;63160;48.854;9.292;2022-10-17T00:07:57;11.07;;;4.97;;
39872;SDS011;63160;48.854;9.292;2022-10-17T00:10:23;7.80;;;4.70;;
39872;SDS011;63160;48.854;9.292;2022-10-17T00:12:51;11.43;;;4.15;;
39872;SDS011;63160;48.854;9.292;2022-10-17T00:15:18;12.40;;;4.40;;
39872;SDS011;63160;48.854;9.292;2022-10-17T00:17:45;6.05;;;3.35;;
39872;SDS011;63160;48.854;9.292;2022-10-17T00:20:13;12.93;;;3.33;;
39872;SDS011;63160;48.854;9.292;2022-10-17T00:22:40;6.45;;;3.40;;
39872;SDS011;63160;48.854;9.292;2022-10-17T00:25:07;6.40;;;3.85;;
39872;SDS011;63160;48.854;9.292;2022-10-17T00:27:34;6.63;;;4.05;;
39872;SDS011;63160;48.854;9.292;2022-10-17T00:30:02;9.25;;;3.28;;
39872;SDS011;63160;48.854;9.292;2022-10-17T00:32:29;14.10;;;3.67;;
39872;SDS011;63160;48.854;9.292;2022-10-17T00:34:57;7.78;;;3.08;;
39872;SDS011;63160;48.854;9.292;2022-10-17T00:37:24;5.53;;;2.80;;
39872;SDS011;63160;48.854;9.292;2022-10-17T00:39:51;8.25;;;2.67;;
39872;SDS011;63160;48.854;9.292;2022-10-17T00:42:18;6.45;;;2.90;;
39872;SDS011;63160;48.854;9.292;2022-10-17T00:47:13;4.07;;;2.65;;
39872;SDS011;63160;48.854;9.292;2022-10-17T00:49:42;11.07;;;3.08;;
39872;SDS011;63160;48.854;9.292;2022-10-17T00:52:17;9.63;;;2.83;;
39872;SDS011;63160;48.854;9.292;2022-10-17T00:54:50;5.35;;;3.25;;
39872;SDS011;63160;48.854;9.292;2022-10-17T00:57:20;4.40;;;3.00;;
39872;SDS011;63160;48.854;9.292;2022-10-17T00:59:50;8.07;;;3.42;;
39872;SDS011;63160;48.854;9.292;2022-10-17T01:02:20;12.70;;;3.30;;
39872;SDS011;63160;48.854;9.292;2022-10-17T01:04:48;5.50;;;2.70;;
39872;SDS011;63160;48.854;9.292;2022-10-17T01:07:16;10.40;;;3.13;;
39872;SDS011;63160;48.854;9.292;2022-10-17T01:09:43;7.40;;;2.72;;
39872;SDS011;63160;48.854;9.292;2022-10-17T01:14:47;7.53;;;3.08;;
39872;SDS011;63160;48.854;9.292;2022-10-17T01:17:29;7.05;;;3.17;;
39872;SDS011;63160;48.854;9.292;2022-10-17T01:28:51;7.57;;;2.72;;
39872;SDS011;63160;48.854;9.292;2022-10-17T01:31:21;5.30;;;2.90;;
39872;SDS011;63160;48.854;9.292;2022-10-17T01:34:02;6.18;;;2.72;;
39872;SDS011;63160;48.854;9.292;2022-10-17T01:39:44;8.80;;;2.78;;
39872;SDS011;63160;48.854;9.292;2022-10-17T01:42:33;6.25;;;3.00;;
39872;SDS011;63160;48.854;9.292;2022-10-17T01:45:19;6.43;;;2.92;;
39872;SDS011;63160;48.854;9.292;2022-10-17T01:47:51;6.90;;;2.80;;
39872;SDS011;63160;48.854;9.292;2022-10-17T01:50:24;5.80;;;2.80;;
39872;SDS011;63160;48.854;9.292;2022-10-17T01:52:55;6.78;;;2.25;;
39872;SDS011;63160;48.854;9.292;2022-10-17T01:55:32;5.45;;;2.40;;
39872;SDS011;63160;48.854;9.292;2022-10-17T01:58:21;2.90;;;2.55;;
39872;SDS011;63160;48.854;9.292;2022-10-17T02:00:50;7.90;;;2.53;;
39872;SDS011;63160;48.854;9.292;2022-10-17T02:03:18;8.85;;;3.15;;
39872;SDS011;63160;48.854;9.292;2022-10-17T02:05:45;8.35;;;2.50;;
39872;SDS011;63160;48.854;9.292;2022-10-17T02:08:12;6.03;;;2.70;;
39872;SDS011;63160;48.854;9.292;2022-10-17T02:21:48;5.78;;;2.92;;
39872;SDS011;63160;48.854;9.292;2022-10-17T02:24:26;4.53;;;2.70;;
39872;SDS011;63160;48.854;9.292;2022-10-17T02:27:05;7.60;;;2.80;;
39872;SDS011;63160;48.854;9.292;2022-10-17T02:29:48;11.15;;;3.03;;
39872;SDS011;63160;48.854;9.292;2022-10-17T02:32:27;4.95;;;2.58;;
39872;SDS011;63160;48.854;9.292;2022-10-17T02:35:01;5.55;;;2.55;;
39872;SDS011;63160;48.854;9.292;2022-10-17T02:37:29;4.22;;;2.70;;
39872;SDS011;63160;48.854;9.292;2022-10-17T02:39:57;13.18;;;2.30;;
39872;SDS011;63160;48.854;9.292;2022-10-17T02:42:25;7.07;;;3.10;;
39872;SDS011;63160;48.854;9.292;2022-10-17T02:44:54;3.35;;;2.58;;
39872;SDS011;63160;48.854;9.292;2022-10-17T02:47:33;9.98;;;2.85;;
39872;SDS011;63160;48.854;9.292;2022-10-17T02:50:03;7.20;;;2.15;;
39872;SDS011;63160;48.854;9.292;2022-10-17T02:52:44;8.32;;;2.90;;
39872;SDS011;63160;48.854;9.292;2022-10-17T02:57:53;10.38;;;2.85;;
39872;SDS011;63160;48.854;9.292;2022-10-17T03:00:22;3.45;;;2.42;;
39872;SDS011;63160;48.854;9.292;2022-10-17T03:02:51;7.57;;;3.00;;
39872;SDS011;63160;48.854;9.292;2022-10-17T03:05:20;17.48;;;2.75;;
39872;SDS011;63160;48.854;9.292;2022-10-17T03:07:48;9.35;;;2.92;;
39872;SDS011;63160;48.854;9.292;2022-10-17T03:10:15;7.65;;;2.80;;
39872;SDS011;63160;48.854;9.292;2022-10-17T03:12:42;7.07;;;2.40;;
39872;SDS011;63160;48.854;9.292;2022-10-17T03:15:10;4.72;;;3.50;;
39872;SDS011;63160;48.854;9.292;2022-10-17T03:17:37;6.97;;;2.92;;
39872;SDS011;63160;48.854;9.292;2022-10-17T03:20:06;3.90;;;2.20;;
39872;SDS011;63160;48.854;9.292;2022-10-17T03:22:33;3.25;;;2.58;;
39872;SDS011;63160;48.854;9.292;2022-10-17T03:25:02;7.30;;;2.42;;
39872;SDS011;63160;48.854;9.292;2022-10-17T03:27:28;7.30;;;2.60;;
39872;SDS011;63160;48.854;9.292;2022-10-17T03:29:56;6.80;;;2.22;;
39872;SDS011;63160;48.854;9.292;2022-10-17T03:32:23;7.53;;;2.10;;
39872;SDS011;63160;48.854;9.292;2022-10-17T03:34:50;8.52;;;2.15;;
39872;SDS011;63160;48.854;9.292;2022-10-17T03:37:16;5.30;;;2.28;;
39872;SDS011;63160;48.854;9.292;2022-10-17T03:39:43;3.30;;;2.35;;
39872;SDS011;63160;48.854;9.292;2022-10-17T03:42:10;8.05;;;2.13;;
39872;SDS011;63160;48.854;9.292;2022-10-17T03:44:37;3.90;;;2.00;;
39872;SDS011;63160;48.854;9.292;2022-10-17T03:47:03;11.63;;;2.28;;
39872;SDS011;63160;48.854;9.292;2022-10-17T03:49:32;9.77;;;2.75;;
39872;SDS011;63160;48.854;9.292;2022-10-17T03:51:59;5.30;;;2.92;;
39872;SDS011;63160;48.854;9.292;2022-10-17T03:54:26;3.03;;;2.65;;
39872;SDS011;63160;48.854;9.292;2022-10-17T03:56:53;12.52;;;2.90;;
39872;SDS011;63160;48.854;9.292;2022-10-17T03:59:20;5.68;;;2.50;;
39872;SDS011;63160;48.854;9.292;2022-10-17T04:01:57;9.45;;;2.65;;
39872;SDS011;63160;48.854;9.292;2022-10-17T04:04:23;7.10;;;2.58;;
39872;SDS011;63160;48.854;9.292;2022-10-17T04:06:50;6.70;;;2.30;;
39872;SDS011;63160;48.854;9.292;2022-10-17T04:09:17;6.25;;;2.25;;
39872;SDS011;63160;48.854;9.292;2022-10-17T04:11:58;5.30;;;2.35;;
39872;SDS011;63160;48.854;9.292;2022-10-17T04:14:25;6.15;;;2.67;;
39872;SDS011;63160;48.854;9.292;2022-10-17T04:16:52;6.35;;;1.92;;
39872;SDS011;63160;48.854;9.292;2022-10-17T04:19:20;9.90;;;2.65;;
39872;SDS011;63160;48.854;9.292;2022-10-17T04:21:47;4.60;;;2.13;;
39872;SDS011;63160;48.854;9.292;2022-10-17T04:24:15;12.52;;;2.30;;
39872;SDS011;63160;48.854;9.292;2022-10-17T04:26:51;9.82;;;3.20;;
39872;SDS011;63160;48.854;9.292;2022-10-17T04:29:21;4.78;;;2.72;;
39872;SDS011;63160;48.854;9.292;2022-10-17T04:31:54;5.68;;;2.75;;
39872;SDS011;63160;48.854;9.292;2022-10-17T04:34:31;6.75;;;2.78;;
39872;SDS011;63160;48.854;9.292;2022-10-17T04:36:58;14.40;;;2.42;;
39872;SDS011;63160;48.854;9.292;2022-10-17T04:39:25;11.50;;;2.90;;
39872;SDS011;63160;48.854;9.292;2022-10-17T04:41:53;7.82;;;3.05;;
39872;SDS011;63160;48.854;9.292;2022-10-17T04:44:22;7.30;;;2.53;;
39872;SDS011;63160;48.854;9.292;2022-10-17T04:46:50;12.45;;;2.80;;
39872;SDS011;63160;48.854;9.292;2022-10-17T04:49:18;5.03;;;2.60;;
39872;SDS011;63160;48.854;9.292;2022-10-17T04:51:47;9.38;;;2.45;;
39872;SDS011;63160;48.854;9.292;2022-10-17T04:54:20;9.05;;;2.40;;
39872;SDS011;63160;48.854;9.292;2022-10-17T04:59:19;5.70;;;2.65;;
39872;SDS011;63160;48.854;9.292;2022-10-17T05:01:51;3.20;;;2.15;;
39872;SDS011;63160;48.854;9.292;2022-10-17T05:04:19;7.18;;;2.60;;
39872;SDS011;63160;48.854;9.292;2022-10-17T05:06:51;4.38;;;2.20;;
39872;SDS011;63160;48.854;9.292;2022-10-17T05:09:21;13.98;;;2.60;;
39872;SDS011;63160;48.854;9.292;2022-10-17T05:11:47;10.20;;;2.55;;
39872;SDS011;63160;48.854;9.292;2022-10-17T05:14:16;8.57;;;2.33;;
39872;SDS011;63160;48.854;9.292;2022-10-17T05:16:43;8.00;;;2.38;;
39872;SDS011;63160;48.854;9.292;2022-10-17T05:19:10;9.15;;;2.38;;
39872;SDS011;63160;48.854;9.292;2022-10-17T05:21:43;6.85;;;2.47;;
39872;SDS011;63160;48.854;9.292;2022-10-17T05:24:10;4.93;;;2.60;;
39872;SDS011;63160;48.854;9.292;2022-10-17T05:26:38;4.88;;;2.55;;
39872;SDS011;63160;48.854;9.292;2022-10-17T05:29:05;8.10;;;2.53;;
39872;SDS011;63160;48.854;9.292;2022-10-17T05:31:36;8.60;;;2.45;;
39872;SDS011;63160;48.854;9.292;2022-10-17T05:34:04;5.78;;;2.63;;
39872;SDS011;63160;48.854;9.292;2022-10-17T05:36:36;4.97;;;2.40;;
39872;SDS011;63160;48.854;9.292;2022-10-17T05:39:04;6.85;;;2.47;;
39872;SDS011;63160;48.854;9.292;2022-10-17T05:41:33;6.45;;;2.85;;
39872;SDS011;63160;48.854;9.292;2022-10-17T05:44:00;3.88;;;2.80;;
39872;SDS011;63160;48.854;9.292;2022-10-17T05:46:40;5.25;;;2.70;;
39872;SDS011;63160;48.854;9.292;2022-10-17T05:49:08;3.20;;;2.60;;
39872;SDS011;63160;48.854;9.292;2022-10-17T05:51:51;7.35;;;2.90;;
39872;SDS011;63160;48.854;9.292;2022-10-17T05:54:17;4.35;;;2.28;;
39872;SDS011;63160;48.854;9.292;2022-10-17T05:56:44;4.20;;;2.65;;
39872;SDS011;63160;48.854;9.292;2022-10-17T05:59:11;11.15;;;2.78;;
39872;SDS011;63160;48.854;9.292;2022-10-17T06:01:47;4.88;;;2.40;;
39872;SDS011;63160;48.854;9.292;2022-10-17T06:04:14;9.52;;;2.85;;
39872;SDS011;63160;48.854;9.292;2022-10-17T06:06:41;2.63;;;2.30;;
39872;SDS011;63160;48.854;9.292;2022-10-17T06:09:08;10.23;;;2.92;;
39872;SDS011;63160;48.854;9.292;2022-10-17T06:11:38;6.35;;;2.67;;
39872;SDS011;63160;48.854;9.292;2022-10-17T06:14:05;10.82;;;2.53;;
39872;SDS011;63160;48.854;9.292;2022-10-17T06:16:33;3.78;;;2.55;;
39872;SDS011;63160;48.854;9.292;2022-10-17T06:18:59;6.57;;;2.55;;
39872;SDS011;63160;48.854;9.292;2022-10-17T06:21:27;8.75;;;2.88;;
39872;SDS011;63160;48.854;9.292;2022-10-17T06:24:04;5.13;;;2.42;;
39872;SDS011;63160;48.854;9.292;2022-10-17T06:26:34;5.68;;;2.63;;
39872;SDS011;63160;48.854;9.292;2022-10-17T06:29:01;7.03;;;2.67;;
39872;SDS011;63160;48.854;9.292;2022-10-17T06:31:33;11.02;;;2.60;;
39872;SDS011;63160;48.854;9.292;2022-10-17T06:34:00;6.85;;;2.55;;
39872;SDS011;63160;48.854;9.292;2022-10-17T06:36:27;2.78;;;2.30;;
39872;SDS011;63160;48.854;9.292;2022-10-17T06:38:54;7.43;;;3.08;;
39872;SDS011;63160;48.854;9.292;2022-10-17T06:41:38;5.80;;;2.88;;
39872;SDS011;63160;48.854;9.292;2022-10-17T06:44:07;4.82;;;2.80;;
39872;SDS011;63160;48.854;9.292;2022-10-17T06:46:57;3.30;;;2.70;;
39872;SDS011;63160;48.854;9.292;2022-10-17T06:49:25;10.77;;;2.60;;
39872;SDS011;63160;48.854;9.292;2022-10-17T06:52:15;7.80;;;2.70;;
39872;SDS011;63160;48.854;9.292;2022-10-17T06:54:56;10.50;;;3.10;;
39872;SDS011;63160;48.854;9.292;2022-10-17T06:57:30;6.70;;;2.90;;
39872;SDS011;63160;48.854;9.292;2022-10-17T07:00:19;8.15;;;2.88;;
39872;SDS011;63160;48.854;9.292;2022-10-17T07:02:50;8.15;;;2.97;;
39872;SDS011;63160;48.854;9.292;2022-10-17T07:05:17;3.90;;;2.90;;
39872;SDS011;63160;48.854;9.292;2022-10-17T07:07:45;4.22;;;2.80;;
39872;SDS011;63160;48.854;9.292;2022-10-17T07:10:17;6.65;;;3.50;;
39872;SDS011;63160;48.854;9.292;2022-10-17T07:12:44;7.10;;;2.88;;
39872;SDS011;63160;48.854;9.292;2022-10-17T07:15:11;4.55;;;3.25;;
39872;SDS011;63160;48.854;9.292;2022-10-17T07:17:38;4.88;;;2.85;;
39872;SDS011;63160;48.854;9.292;2022-10-17T07:20:05;6.45;;;2.40;;
39872;SDS011;63160;48.854;9.292;2022-10-17T07:22:34;6.05;;;3.33;;
39872;SDS011;63160;48.854;9.292;2022-10-17T07:25:01;7.35;;;3.47;;
39872;SDS011;63160;48.854;9.292;2022-10-17T07:27:32;5.00;;;2.67;;
39872;SDS011;63160;48.854;9.292;2022-10-17T07:30:00;7.68;;;2.95;;
39872;SDS011;63160;48.854;9.292;2022-10-17T07:32:35;5.70;;;3.03;;
39872;SDS011;63160;48.854;9.292;2022-10-17T07:35:03;9.80;;;3.72;;
39872;SDS011;63160;48.854;9.292;2022-10-17T07:37:30;8.45;;;3.03;;
39872;SDS011;63160;48.854;9.292;2022-10-17T07:39:58;8.77;;;3.20;;
39872;SDS011;63160;48.854;9.292;2022-10-17T07:42:25;5.05;;;2.55;;
39872;SDS011;63160;48.854;9.292;2022-10-17T07:44:53;6.75;;;2.90;;
39872;SDS011;63160;48.854;9.292;2022-10-17T07:47:21;9.80;;;2.97;;
39872;SDS011;63160;48.854;9.292;2022-10-17T07:49:48;6.70;;;3.95;;
39872;SDS011;63160;48.854;9.292;2022-10-17T07:52:15;6.30;;;4.20;;
39872;SDS011;63160;48.854;9.292;2022-10-17T07:54:42;6.32;;;3.97;;
39872;SDS011;63160;48.854;9.292;2022-10-17T07:57:09;12.18;;;3.08;;
39872;SDS011;63160;48.854;9.292;2022-10-17T07:59:36;4.65;;;2.80;;
39872;SDS011;63160;48.854;9.292;2022-10-17T08:02:03;8.27;;;2.47;;
39872;SDS011;63160;48.854;9.292;2022-10-17T08:04:31;5.63;;;2.65;;
39872;SDS011;63160;48.854;9.292;2022-10-17T08:06:58;8.48;;;2.80;;
39872;SDS011;63160;48.854;9.292;2022-10-17T08:09:44;7.30;;;2.60;;
39872;SDS011;63160;48.854;9.292;2022-10-17T08:12:11;7.25;;;3.25;;
39872;SDS011;63160;48.854;9.292;2022-10-17T08:14:40;8.55;;;3.33;;
39872;SDS011;63160;48.854;9.292;2022-10-17T08:17:07;3.75;;;2.65;;
39872;SDS011;63160;48.854;9.292;2022-10-17T08:19:38;7.60;;;3.72;;
39872;SDS011;63160;48.854;9.292;2022-10-17T08:22:05;8.68;;;3.33;;
39872;SDS011;63160;48.854;9.292;2022-10-17T08:24:32;9.88;;;3.10;;
39872;SDS011;63160;48.854;9.292;2022-10-17T08:26:59;5.60;;;2.70;;
39872;SDS011;63160;48.854;9.292;2022-10-17T08:29:26;9.82;;;4.85;;
39872;SDS011;63160;48.854;9.292;2022-10-17T08:31:52;12.70;;;3.92;;
39872;SDS011;63160;48.854;9.292;2022-10-17T08:34:26;8.98;;;3.33;;
39872;SDS011;63160;48.854;9.292;2022-10-17T08:36:53;4.05;;;2.50;;
39872;SDS011;63160;48.854;9.292;2022-10-17T08:39:20;10.65;;;4.20;;
39872;SDS011;63160;48.854;9.292;2022-10-17T08:46:56;7.47;;;2.25;;
39872;SDS011;63160;48.854;9.292;2022-10-17T08:49:29;3.63;;;2.60;;
39872;SDS011;63160;48.854;9.292;2022-10-17T08:52:06;3.95;;;2.17;;
39872;SDS011;63160;48.854;9.292;2022-10-17T08:54:56;5.85;;;2.83;;
39872;SDS011;63160;48.854;9.292;2022-10-17T08:57:23;3.25;;;2.25;;
39872;SDS011;63160;48.854;9.292;2022-10-17T08:59:50;4.63;;;2.85;;
39872;SDS011;63160;48.854;9.292;2022-10-17T09:21:17;9.63;;;3.40;;
39872;SDS011;63160;48.854;9.292;2022-10-17T09:23:55;3.92;;;2.95;;
39872;SDS011;63160;48.854;9.292;2022-10-17T09:26:40;4.82;;;2.28;;
39872;SDS011;63160;48.854;9.292;2022-10-17T09:29:13;5.03;;;3.90;;
39872;SDS011;63160;48.854;9.292;2022-10-17T09:32:03;7.82;;;4.50;;
39872;SDS011;63160;48.854;9.292;2022-10-17T09:34:40;7.43;;;2.90;;
39872;SDS011;63160;48.854;9.292;2022-10-17T09:37:10;5.55;;;2.00;;
39872;SDS011;63160;48.854;9.292;2022-10-17T09:39:39;6.82;;;2.28;;
39872;SDS011;63160;48.854;9.292;2022-10-17T09:42:08;6.40;;;3.83;;
39872;SDS011;63160;48.854;9.292;2022-10-17T09:44:56;13.15;;;4.55;;
39872;SDS011;63160;48.854;9.292;2022-10-17T09:47:38;6.13;;;3.88;;
39872;SDS011;63160;48.854;9.292;2022-10-17T09:50:29;10.07;;;5.03;;
39872;SDS011;63160;48.854;9.292;2022-10-17T09:52:57;14.45;;;5.97;;
39872;SDS011;63160;48.854;9.292;2022-10-17T09:55:30;5.45;;;3.35;;
39872;SDS011;63160;48.854;9.292;2022-10-17T09:58:04;4.32;;;3.05;;
39872;SDS011;63160;48.854;9.292;2022-10-17T10:00:34;4.45;;;1.85;;
39872;SDS011;63160;48.854;9.292;2022-10-17T10:06:02;9.88;;;2.65;;
39872;SDS011;63160;48.854;9.292;2022-10-17T10:08:31;14.98;;;5.55;;
39872;SDS011;63160;48.854;9.292;2022-10-17T10:11:05;11.57;;;5.97;;
39872;SDS011;63160;48.854;9.292;2022-10-17T10:13:34;9.02;;;4.28;;
39872;SDS011;63160;48.854;9.292;2022-10-17T10:16:15;9.05;;;5.50;;
39872;SDS011;63160;48.854;9.292;2022-10-17T10:18:42;4.97;;;2.83;;
39872;SDS011;63160;48.854;9.292;2022-10-17T10:21:13;6.85;;;2.95;;
39872;SDS011;63160;48.854;9.292;2022-10-17T10:23:41;3.80;;;2.42;;
39872;SDS011;63160;48.854;9.292;2022-10-17T10:29:04;10.70;;;2.53;;
39872;SDS011;63160;48.854;9.292;2022-10-17T10:31:34;5.75;;;1.60;;
39872;SDS011;63160;48.854;9.292;2022-10-17T10:34:14;7.80;;;2.28;;
39872;SDS011;63160;48.854;9.292;2022-10-17T10:37:06;5.65;;;1.80;;
39872;SDS011;63160;48.854;9.292;2022-10-17T10:42:46;2.22;;;1.85;;
39872;SDS011;63160;48.854;9.292;2022-10-17T10:45:17;6.90;;;2.00;;
39872;SDS011;63160;48.854;9.292;2022-10-17T10:48:24;2.60;;;1.95;;
39872;SDS011;63160;48.854;9.292;2022-10-17T10:50:59;5.22;;;2.53;;
39872;SDS011;63160;48.854;9.292;2022-10-17T10:53:37;7.38;;;2.30;;
39872;SDS011;63160;48.854;9.292;2022-10-17T10:56:21;4.82;;;2.05;;
39872;SDS011;63160;48.854;9.292;2022-10-17T11:01:55;2.83;;;2.47;;
39872;SDS011;63160;48.854;9.292;2022-10-17T11:04:36;3.13;;;2.00;;
39872;SDS011;63160;48.854;9.292;2022-10-17T11:07:19;8.50;;;2.15;;
39872;SDS011;63160;48.854;9.292;2022-10-17T11:12:35;2.60;;;2.10;;
39872;SDS011;63160;48.854;9.292;2022-10-17T11:17:59;3.83;;;2.10;;
39872;SDS011;63160;48.854;9.292;2022-10-17T11:23:24;5.22;;;2.00;;
39872;SDS011;63160;48.854;9.292;2022-10-17T11:25:58;2.85;;;1.88;;
39872;SDS011;63160;48.854;9.292;2022-10-17T11:28:29;5.43;;;1.85;;
39872;SDS011;63160;48.854;9.292;2022-10-17T11:31:03;5.93;;;1.92;;
39872;SDS011;63160;48.854;9.292;2022-10-17T11:36:07;5.57;;;1.70;;
39872;SDS011;63160;48.854;9.292;2022-10-17T11:41:02;5.57;;;1.92;;
39872;SDS011;63160;48.854;9.292;2022-10-17T11:44:14;5.07;;;1.63;;
39872;SDS011;63160;48.854;9.292;2022-10-17T11:46:23;3.63;;;2.20;;
39872;SDS011;63160;48.854;9.292;2022-10-17T11:51:51;5.20;;;1.73;;
39872;SDS011;63160;48.854;9.292;2022-10-17T12:03:03;5.28;;;1.83;;
39872;SDS011;63160;48.854;9.292;2022-10-17T12:05:43;7.93;;;2.00;;
39872;SDS011;63160;48.854;9.292;2022-10-17T12:13:50;4.10;;;1.95;;
39872;SDS011;63160;48.854;9.292;2022-10-17T12:18:47;3.20;;;1.90;;
39872;SDS011;63160;48.854;9.292;2022-10-17T12:21:16;4.07;;;2.10;;
39872;SDS011;63160;48.854;9.292;2022-10-17T12:23:50;5.60;;;1.73;;
39872;SDS011;63160;48.854;9.292;2022-10-17T12:26:27;11.35;;;2.13;;
39872;SDS011;63160;48.854;9.292;2022-10-17T12:28:55;4.30;;;2.50;;
39872;SDS011;63160;48.854;9.292;2022-10-17T12:31:23;8.60;;;2.47;;
39872;SDS011;63160;48.854;9.292;2022-10-17T12:33:58;7.80;;;2.15;;
39872;SDS011;63160;48.854;9.292;2022-10-17T12:46:43;5.40;;;1.63;;
39872;SDS011;63160;48.854;9.292;2022-10-17T13:03:32;6.38;;;1.67;;
39872;SDS011;63160;48.854;9.292;2022-10-17T13:05:55;3.85;;;1.70;;
39872;SDS011;63160;48.854;9.292;2022-10-17T13:08:25;4.25;;;1.80;;
39872;SDS011;63160;48.854;9.292;2022-10-17T13:10:54;10.65;;;2.00;;
39872;SDS011;63160;48.854;9.292;2022-10-17T13:13:35;11.88;;;2.03;;
39872;SDS011;63160;48.854;9.292;2022-10-17T13:16:04;4.43;;;1.90;;
39872;SDS011;63160;48.854;9.292;2022-10-17T13:18:31;9.40;;;2.20;;
39872;SDS011;63160;48.854;9.292;2022-10-17T13:23:25;2.90;;;2.28;;
39872;SDS011;63160;48.854;9.292;2022-10-17T13:26:01;6.07;;;1.98;;
39872;SDS011;63160;48.854;9.292;2022-10-17T13:28:42;2.97;;;1.40;;
39872;SDS011;63160;48.854;9.292;2022-10-17T13:34:05;3.83;;;1.98;;
39872;SDS011;63160;48.854;9.292;2022-10-17T13:36:40;5.88;;;1.63;;
39872;SDS011;63160;48.854;9.292;2022-10-17T13:39:15;5.97;;;2.22;;
39872;SDS011;63160;48.854;9.292;2022-10-17T13:41:57;5.68;;;1.65;;
39872;SDS011;63160;48.854;9.292;2022-10-17T13:44:25;5.22;;;1.75;;
39872;SDS011;63160;48.854;9.292;2022-10-17T13:46:53;6.30;;;2.25;;
39872;SDS011;63160;48.854;9.292;2022-10-17T13:52:22;6.78;;;1.77;;
39872;SDS011;63160;48.854;9.292;2022-10-17T13:54:51;6.68;;;1.80;;
39872;SDS011;63160;48.854;9.292;2022-10-17T13:59:50;3.75;;;1.58;;
39872;SDS011;63160;48.854;9.292;2022-10-17T14:02:20;7.35;;;2.00;;
39872;SDS011;63160;48.854;9.292;2022-10-17T14:07:56;6.93;;;1.95;;
39872;SDS011;63160;48.854;9.292;2022-10-17T14:10:45;7.50;;;2.47;;
39872;SDS011;63160;48.854;9.292;2022-10-17T14:13:19;4.07;;;2.05;;
39872;SDS011;63160;48.854;9.292;2022-10-17T14:15:47;3.35;;;2.00;;
39872;SDS011;63160;48.854;9.292;2022-10-17T14:18:16;6.13;;;2.42;;
39872;SDS011;63160;48.854;9.292;2022-10-17T14:23:35;4.65;;;1.92;;
39872;SDS011;63160;48.854;9.292;2022-10-17T14:28:33;7.72;;;2.30;;
39872;SDS011;63160;48.854;9.292;2022-10-17T14:31:10;3.25;;;2.08;;
39872;SDS011;63160;48.854;9.292;2022-10-17T14:33:44;5.40;;;1.90;;
39872;SDS011;63160;48.854;9.292;2022-10-17T14:36:16;5.18;;;1.92;;
39872;SDS011;63160;48.854;9.292;2022-10-17T14:38:47;3.90;;;2.17;;
39872;SDS011;63160;48.854;9.292;2022-10-17T14:41:22;3.85;;;2.17;;
39872;SDS011;63160;48.854;9.292;2022-10-17T14:44:18;3.85;;;1.70;;
39872;SDS011;63160;48.854;9.292;2022-10-17T14:46:56;6.28;;;1.83;;
39872;SDS011;63160;48.854;9.292;2022-10-17T14:49:36;5.95;;;2.00;;
39872;SDS011;63160;48.854;9.292;2022-10-17T14:54:44;5.15;;;2.05;;
39872;SDS011;63160;48.854;9.292;2022-10-17T14:57:26;9.70;;;2.83;;
39872;SDS011;63160;48.854;9.292;2022-10-17T14:59:59;5.53;;;2.13;;
39872;SDS011;63160;48.854;9.292;2022-10-17T15:02:28;4.38;;;2.40;;
39872;SDS011;63160;48.854;9.292;2022-10-17T15:04:58;2.30;;;1.67;;
39872;SDS011;63160;48.854;9.292;2022-10-17T15:07:37;5.88;;;2.58;;
39872;SDS011;63160;48.854;9.292;2022-10-17T15:10:04;3.50;;;2.15;;
39872;SDS011;63160;48.854;9.292;2022-10-17T15:12:31;4.85;;;2.28;;
39872;SDS011;63160;48.854;9.292;2022-10-17T15:14:58;4.07;;;1.90;;
39872;SDS011;63160;48.854;9.292;2022-10-17T15:17:28;4.68;;;1.80;;
39872;SDS011;63160;48.854;9.292;2022-10-17T15:19:56;5.93;;;2.75;;
39872;SDS011;63160;48.854;9.292;2022-10-17T15:22:23;3.60;;;2.50;;
39872;SDS011;63160;48.854;9.292;2022-10-17T15:24:50;3.42;;;2.10;;
39872;SDS011;63160;48.854;9.292;2022-10-17T15:27:23;9.35;;;2.65;;
39872;SDS011;63160;48.854;9.292;2022-10-17T15:29:51;5.60;;;2.40;;
39872;SDS011;63160;48.854;9.292;2022-10-17T15:32:18;4.18;;;2.03;;
39872;SDS011;63160;48.854;9.292;2022-10-17T15:34:45;6.75;;;2.10;;
39872;SDS011;63160;48.854;9.292;2022-10-17T15:37:30;2.35;;;2.10;;
39872;SDS011;63160;48.854;9.292;2022-10-17T15:40:01;4.43;;;2.60;;
39872;SDS011;63160;48.854;9.292;2022-10-17T15:42:34;7.63;;;2.53;;
39872;SDS011;63160;48.854;9.292;2022-10-17T15:45:01;4.60;;;2.00;;
39872;SDS011;63160;48.854;9.292;2022-10-17T15:47:29;6.30;;;2.13;;
39872;SDS011;63160;48.854;9.292;2022-10-17T15:49:59;5.55;;;2.83;;
39872;SDS011;63160;48.854;9.292;2022-10-17T15:52:26;5.60;;;2.35;;
39872;SDS011;63160;48.854;9.292;2022-10-17T15:54:53;6.53;;;2.30;;
39872;SDS011;63160;48.854;9.292;2022-10-17T15:57:26;7.00;;;2.20;;
39872;SDS011;63160;48.854;9.292;2022-10-17T15:59:54;6.70;;;2.60;;
39872;SDS011;63160;48.854;9.292;2022-10-17T16:02:23;2.88;;;2.58;;
39872;SDS011;63160;48.854;9.292;2022-10-17T16:04:50;2.97;;;2.22;;
39872;SDS011;63160;48.854;9.292;2022-10-17T16:07:17;3.78;;;2.58;;
39872;SDS011;63160;48.854;9.292;2022-10-17T16:09:45;8.50;;;2.72;;
39872;SDS011;63160;48.854;9.292;2022-10-17T16:12:14;5.47;;;2.90;;
39872;SDS011;63160;48.854;9.292;2022-10-17T16:14:43;5.22;;;2.75;;
39872;SDS011;63160;48.854;9.292;2022-10-17T16:17:12;6.78;;;2.28;;
39872;SDS011;63160;48.854;9.292;2022-10-17T16:19:41;8.15;;;2.33;;
39872;SDS011;63160;48.854;9.292;2022-10-17T16:22:19;7.65;;;2.80;;
39872;SDS011;63160;48.854;9.292;2022-10-17T16:24:48;2.88;;;2.53;;
39872;SDS011;63160;48.854;9.292;2022-10-17T18:37:16;10.63;;;4.97;;
39872;SDS011;63160;48.854;9.292;2022-10-17T18:39:42;6.07;;;4.85;;
39872;SDS011;63160;48.854;9.292;2022-10-17T18:42:10;12.07;;;5.22;;
39872;SDS011;63160;48.854;9.292;2022-10-17T18:44:37;9.38;;;4.00;;
39872;SDS011;63160;48.854;9.292;2022-10-17T18:47:03;11.38;;;5.10;;
39872;SDS011;63160;48.854;9.292;2022-10-17T18:49:30;6.93;;;4.57;;
39872;SDS011;63160;48.854;9.292;2022-10-17T18:51:57;11.27;;;4.88;;
39872;SDS011;63160;48.854;9.292;2022-10-17T18:54:25;11.77;;;4.78;;
39872;SDS011;63160;48.854;9.292;2022-10-17T18:56:52;10.75;;;4.68;;
39872;SDS011;63160;48.854;9.292;2022-10-17T18:59:19;14.73;;;4.78;;
39872;SDS011;63160;48.854;9.292;2022-10-17T19:01:46;14.38;;;4.47;;
39872;SDS011;63160;48.854;9.292;2022-10-17T19:04:13;12.27;;;5.57;;
39872;SDS011;63160;48.854;9.292;2022-10-17T19:06:40;9.23;;;4.93;;
39872;SDS011;63160;48.854;9.292;2022-10-17T19:09:07;9.88;;;5.25;;
39872;SDS011;63160;48.854;9.292;2022-10-17T19:11:36;9.15;;;4.88;;
39872;SDS011;63160;48.854;9.292;2022-10-17T19:14:05;12.10;;;4.93;;
39872;SDS011;63160;48.854;9.292;2022-10-17T19:16:43;14.68;;;5.30;;
39872;SDS011;63160;48.854;9.292;2022-10-17T19:19:14;8.77;;;4.68;;
39872;SDS011;63160;48.854;9.292;2022-10-17T19:21:43;5.55;;;4.70;;
39872;SDS011;63160;48.854;9.292;2022-10-17T19:24:11;9.20;;;5.78;;
39872;SDS011;63160;48.854;9.292;2022-10-17T19:26:40;12.90;;;4.53;;
39872;SDS011;63160;48.854;9.292;2022-10-17T19:29:10;5.70;;;4.47;;
39872;SDS011;63160;48.854;9.292;2022-10-17T19:31:39;6.97;;;4.50;;
39872;SDS011;63160;48.854;9.292;2022-10-17T19:34:06;13.05;;;4.43;;
39872;SDS011;63160;48.854;9.292;2022-10-17T19:36:33;9.00;;;4.50;;
39872;SDS011;63160;48.854;9.292;2022-10-17T19:39:01;9.23;;;4.72;;
39872;SDS011;63160;48.854;9.292;2022-10-17T19:41:29;7.82;;;4.32;;
39872;SDS011;63160;48.854;9.292;2022-10-17T19:43:56;7.63;;;4.93;;
39872;SDS011;63160;48.854;9.292;2022-10-17T19:46:24;7.22;;;4.70;;